Goddard, KS (67052)

1:43 AM CDT on August 05, 2015 (GMT -0500)
Goddard North | | Change Station
CLOSE
Current Station
Personal Weather Station
Location: Goddard, KS
Elevation: 1473 ft
Nearby Weather Stations

Elev 1473 ft 37.67 °N, 97.58 °W | Updated 6 minutes ago

Mostly Cloudy
Mostly Cloudy
72.3 °F
Feels Like 72.3 °F
N
2.7
Wind Variable Wind from NE

Today
High -- | Low -- °F
--% Chance of Precip.
Yesterday
High -- | Low -- °F
Precip. -- in
6:37 AM 8:34 PM
Waning Gibbous, 70% visible
Pressure 29.91 in
Visibility 10.0 miles
Clouds Few 4500 ft
Scattered Clouds 7500 ft
Scattered Clouds 12000 ft
Mostly Cloudy 22000 ft
Dew Point 71 °F
Humidity 95%
Rainfall 0.00 in
Snow Depth Not available.
UV 0 out of 12
Pollen 5.90 out of 12
Air Quality Not available.
Flu Activity Not available.
METAR KICT 050553Z 11007KT 10SM FEW045 SCT075 SCT120 BKN220 23/21 A2995 RMK AO2 SLP128 T02330211 10272 20233 402830228 55002

More Conditions Fewer Conditions

Pressure 29.91 in
Visibility 10.0 miles
Clouds Few 4500 ft
Scattered Clouds 7500 ft
Scattered Clouds 12000 ft
Mostly Cloudy 22000 ft
Dew Point 71 °F
Humidity 95%
Rainfall 0.00 in
Snow Depth Not available.
UV 0 out of 12
Pollen 5.90 out of 12
Air Quality Not available.
Flu Activity Not available.
METAR KICT 050553Z 11007KT 10SM FEW045 SCT075 SCT120 BKN220 23/21 A2995 RMK AO2 SLP128 T02330211 10272 20233 402830228 55002

More Conditions Fewer Conditions

10-Day Weather Forecast

×

Almanac

Astronomy

Aug. 05, 2015 Rise Set
Actual Time
Civil Twilight
Nautical Twilight
Astronomical Twilight
Moon
Length of Visible Light
Length of Day
Tomorrow will be .
, % of the Moon is Illuminated

Today's Extremes

State Highs State Lows

Community

WunderPhotos

Upload Photos

1,844,105 photos uploaded!

WunderBlogs® & News

Nearby

Air Quality

  Air Quality AQ Index Pollutant
Not available.

Snow Depth

Station Depth Elevation

Earthquake Activity

City Distance Mag. Time & Date
Minimum magnitude displayed is 2.5.

Coastal Water Temperatures

Place Temperature

Stations

Nearby Weather Stations

Station Location Temp. Windchill Dew Point Humidity Wind Precip. Elev Updated Type